Time;durP1;ratioP1;P1;durP2;ratioP2;P2;SDS_P1;SDS_P2;PMS_P1;PMS_P2;Temp;Humidity;BMP_temperature;BMP_pressure;BME280_temperature;BME280_humidity;BME280_pressure;Samples;Min_cycle;Max_cycle;Signal;HPM_P1;HPM_P2
2021/11/22 00:01:21;;;;;;;0.30;0.10;;;5.80;93.40;;;;;;4786421;29;20639;-78
2021/11/22 00:03:48;;;;;;;0.73;0.10;;;5.70;93.40;;;;;;4799100;29;20506;-79
2021/11/22 00:06:16;;;;;;;0.52;0.17;;;5.70;93.40;;;;;;4815419;29;20403;-76
2021/11/22 00:08:43;;;;;;;0.52;0.10;;;5.70;93.40;;;;;;4815433;29;20058;-82
2021/11/22 00:11:10;;;;;;;0.40;0.15;;;5.70;93.50;;;;;;4786086;29;20051;-81
2021/11/22 00:13:37;;;;;;;0.40;0.17;;;5.70;93.50;;;;;;4814355;29;20705;-78
2021/11/22 00:16:05;;;;;;;0.40;0.10;;;5.60;93.50;;;;;;4783756;29;20216;-80
2021/11/22 00:18:32;;;;;;;0.30;0.10;;;5.60;93.50;;;;;;4815301;29;20062;-77
2021/11/22 00:21:03;;;;;;;0.68;0.10;;;5.60;93.50;;;;;;4794010;29;20042;-76
2021/11/22 00:23:30;;;;;;;0.90;0.10;;;5.60;93.50;;;;;;4801203;29;20300;-79
2021/11/22 00:25:57;;;;;;;0.70;0.20;;;5.60;93.50;;;;;;4793947;29;20056;-78
2021/11/22 00:28:24;;;;;;;0.40;0.20;;;5.60;93.50;;;;;;4797155;29;20130;-79
2021/11/22 00:31:26;;;;;;;1.45;0.20;;;5.60;93.50;;;;;;4779055;29;20047;-79
2021/11/22 00:34:00;;;;;;;0.30;0.10;;;5.60;93.50;;;;;;4791175;29;20058;-79
2021/11/22 00:36:50;;;;;;;2.22;0.20;;;5.60;93.40;;;;;;4795985;29;20369;-79
2021/11/22 00:39:17;;;;;;;0.28;0.10;;;5.60;93.40;;;;;;4803872;29;20516;-78
2021/11/22 00:41:44;;;;;;;0.55;0.20;;;5.60;93.40;;;;;;4785576;29;20039;-78
2021/11/22 00:44:15;;;;;;;1.38;0.20;;;5.60;93.40;;;;;;4798300;29;20054;-78
2021/11/22 00:46:42;;;;;;;0.40;0.20;;;5.60;93.40;;;;;;4783558;29;20051;-78
2021/11/22 00:49:09;;;;;;;0.38;0.20;;;5.60;93.40;;;;;;4783080;29;20085;-79
2021/11/22 00:51:36;;;;;;;0.65;0.25;;;5.60;93.50;;;;;;4783016;29;20074;-78
2021/11/22 00:54:03;;;;;;;3.00;0.20;;;5.60;93.50;;;;;;4802207;29;20047;-78
2021/11/22 00:56:30;;;;;;;1.48;0.20;;;5.50;93.40;;;;;;4798108;29;20054;-78
2021/11/22 00:58:57;;;;;;;0.88;0.20;;;5.50;93.40;;;;;;4774944;29;20603;-78
2021/11/22 01:01:24;;;;;;;0.82;0.20;;;5.50;93.50;;;;;;4789731;29;20128;-78
2021/11/22 01:03:51;;;;;;;0.68;0.10;;;5.50;93.50;;;;;;4767819;29;20055;-78
2021/11/22 01:06:20;;;;;;;1.25;0.10;;;5.50;93.50;;;;;;4776297;29;20438;-78
2021/11/22 01:08:47;;;;;;;1.05;0.10;;;5.50;93.50;;;;;;4798130;29;20489;-79
2021/11/22 01:11:14;;;;;;;0.25;0.10;;;5.50;93.50;;;;;;4811974;29;20066;-78
2021/11/22 01:13:41;;;;;;;0.43;0.20;;;5.50;93.50;;;;;;4782831;29;20049;-78
2021/11/22 01:16:08;;;;;;;1.00;0.20;;;5.50;93.50;;;;;;4799569;29;20158;-78
2021/11/22 01:18:35;;;;;;;0.00;0.00;;;5.50;93.50;;;;;;4782106;29;20111;-78
2021/11/22 01:21:03;;;;;;;0.50;0.10;;;5.50;93.50;;;;;;4787395;29;20050;-78
2021/11/22 01:23:30;;;;;;;2.58;0.20;;;5.40;93.50;;;;;;4788445;29;20142;-78
2021/11/22 01:25:57;;;;;;;0.98;0.20;;;5.40;93.50;;;;;;4796022;29;20532;-78
2021/11/22 01:28:24;;;;;;;1.73;0.52;;;5.40;93.50;;;;;;4796369;29;20055;-78
2021/11/22 01:30:52;;;;;;;0.73;0.20;;;5.40;93.60;;;;;;4794594;29;20763;-78
2021/11/22 01:33:19;;;;;;;0.57;0.20;;;5.40;93.50;;;;;;4815363;29;20050;-78
2021/11/22 01:35:46;;;;;;;0.35;0.15;;;5.50;93.50;;;;;;4827252;29;20748;-78
2021/11/22 01:38:14;;;;;;;0.65;0.20;;;5.50;93.50;;;;;;4817356;29;20114;-78
2021/11/22 01:40:43;;;;;;;0.30;0.15;;;5.40;93.50;;;;;;4831336;29;20065;-78
2021/11/22 01:43:14;;;;;;;0.47;0.20;;;5.50;93.50;;;;;;4806764;29;20129;-78
2021/11/22 01:45:47;;;;;;;0.80;0.10;;;5.40;93.50;;;;;;4813890;29;20050;-76
2021/11/22 01:48:22;;;;;;;1.23;0.20;;;5.40;93.50;;;;;;4818292;29;20046;-77
2021/11/22 01:50:49;;;;;;;0.68;0.17;;;5.40;93.50;;;;;;4810471;29;20074;-77
2021/11/22 01:53:17;;;;;;;0.55;0.10;;;5.40;93.80;;;;;;4809611;29;20043;-77
2021/11/22 01:55:44;;;;;;;1.33;0.10;;;5.40;93.60;;;;;;4818109;29;20054;-77
2021/11/22 01:58:11;;;;;;;0.98;0.10;;;5.40;93.50;;;;;;4798311;29;20087;-76
2021/11/22 02:00:45;;;;;;;3.35;0.82;;;5.40;93.60;;;;;;4814474;29;20099;-77
2021/11/22 02:03:15;;;;;;;0.15;0.10;;;5.40;93.60;;;;;;4821333;29;20578;-77
2021/11/22 02:05:42;;;;;;;0.32;0.10;;;5.40;93.60;;;;;;4805044;29;20066;-77
2021/11/22 02:08:09;;;;;;;0.10;0.10;;;5.30;93.50;;;;;;4821978;29;20408;-77
2021/11/22 02:10:37;;;;;;;0.40;0.30;;;5.30;93.60;;;;;;4800491;29;20081;-76
2021/11/22 02:13:05;;;;;;;2.53;0.73;;;5.30;93.60;;;;;;4821297;29;20042;-77
2021/11/22 02:15:33;;;;;;;0.17;0.10;;;5.30;93.60;;;;;;4819664;29;20077;-76
2021/11/22 02:18:00;;;;;;;0.60;0.38;;;5.30;93.60;;;;;;4812812;29;20428;-76
2021/11/22 02:20:29;;;;;;;0.45;0.10;;;5.30;93.60;;;;;;4796646;29;20140;-76
2021/11/22 02:23:02;;;;;;;0.15;0.13;;;5.20;93.60;;;;;;4814544;29;20380;-77
2021/11/22 02:25:32;;;;;;;0.75;0.20;;;5.30;93.60;;;;;;4823928;29;20131;-77
2021/11/22 02:28:00;;;;;;;0.63;0.20;;;5.30;93.60;;;;;;4824140;29;20051;-78
2021/11/22 02:30:30;;;;;;;0.30;0.10;;;5.30;93.60;;;;;;4827827;29;20070;-78
2021/11/22 02:33:00;;;;;;;0.35;0.10;;;5.20;93.60;;;;;;4822929;29;20054;-78
2021/11/22 02:35:28;;;;;;;0.93;0.68;;;5.20;93.60;;;;;;4816969;29;20106;-77
2021/11/22 02:38:21;;;;;;;2.75;0.20;;;5.20;93.60;;;;;;4796392;29;20046;-77
2021/11/22 02:40:48;;;;;;;0.50;0.10;;;5.20;93.70;;;;;;4818444;29;20050;-77
2021/11/22 02:43:15;;;;;;;1.00;0.20;;;5.20;93.70;;;;;;4811725;29;20173;-77
2021/11/22 02:45:43;;;;;;;0.32;0.10;;;5.10;93.60;;;;;;4806227;29;20055;-77
2021/11/22 02:48:10;;;;;;;1.88;0.20;;;5.20;93.60;;;;;;4816782;29;20046;-78
2021/11/22 02:50:37;;;;;;;0.70;0.20;;;5.10;93.60;;;;;;4805990;29;20487;-76
2021/11/22 02:53:04;;;;;;;0.75;0.10;;;5.10;93.60;;;;;;4814101;29;20047;-76
2021/11/22 02:55:32;;;;;;;1.40;0.20;;;5.10;93.60;;;;;;4815332;29;20050;-76
2021/11/22 02:57:59;;;;;;;0.32;0.10;;;5.10;93.60;;;;;;4798637;29;20094;-75
2021/11/22 03:00:28;;;;;;;1.15;0.20;;;5.10;93.70;;;;;;4793004;29;20125;-76
2021/11/22 03:02:56;;;;;;;0.57;0.10;;;5.10;93.70;;;;;;4814954;29;20049;-76
2021/11/22 03:05:23;;;;;;;1.23;0.10;;;5.00;93.60;;;;;;4824666;29;20054;-76
2021/11/22 03:07:53;;;;;;;0.35;0.10;;;5.00;93.60;;;;;;4804072;29;20101;-76
2021/11/22 03:10:21;;;;;;;0.30;0.20;;;5.00;93.70;;;;;;4822774;29;20080;-76
2021/11/22 03:12:49;;;;;;;0.50;0.10;;;5.00;93.70;;;;;;4798230;29;20524;-76
2021/11/22 03:15:19;;;;;;;0.63;0.20;;;5.00;93.70;;;;;;4802890;29;20141;-76
2021/11/22 03:17:46;;;;;;;1.63;0.28;;;4.90;93.70;;;;;;4807499;29;20046;-76
2021/11/22 03:20:16;;;;;;;0.77;0.10;;;4.90;93.70;;;;;;4815680;29;20392;-76
2021/11/22 03:22:44;;;;;;;0.25;0.10;;;4.90;93.70;;;;;;4808470;29;20054;-76
2021/11/22 03:25:12;;;;;;;3.30;0.30;;;4.90;93.70;;;;;;4796015;29;20043;-76
2021/11/22 03:27:41;;;;;;;0.40;0.10;;;4.90;93.70;;;;;;4810270;29;20070;-76
2021/11/22 03:30:10;;;;;;;1.50;0.30;;;4.90;93.70;;;;;;4826410;29;20072;-76
2021/11/22 03:32:37;;;;;;;1.05;0.28;;;4.90;93.70;;;;;;4818016;29;20517;-75
2021/11/22 03:35:05;;;;;;;0.85;0.20;;;4.90;93.70;;;;;;4796490;29;20128;-76
2021/11/22 03:37:33;;;;;;;2.17;0.20;;;4.90;93.70;;;;;;4808382;29;20061;-75
2021/11/22 03:40:01;;;;;;;0.35;0.20;;;4.90;93.70;;;;;;4808066;29;20050;-76
2021/11/22 03:42:36;;;;;;;1.15;0.93;;;4.80;93.70;;;;;;4801590;29;20560;-75
2021/11/22 03:45:06;;;;;;;0.10;0.10;;;4.80;93.70;;;;;;4799223;29;20487;-76
2021/11/22 03:47:33;;;;;;;1.75;0.20;;;4.80;93.80;;;;;;4812305;29;20062;-76
2021/11/22 03:50:01;;;;;;;0.32;0.10;;;4.80;93.80;;;;;;4810684;29;20520;-76
2021/11/22 03:52:28;;;;;;;0.30;0.10;;;4.80;93.80;;;;;;4787710;29;20042;-76
2021/11/22 03:54:55;;;;;;;0.38;0.10;;;4.80;93.70;;;;;;4819480;29;20430;-76
2021/11/22 03:57:23;;;;;;;0.38;0.20;;;4.80;93.70;;;;;;4791931;29;20151;-76
2021/11/22 03:59:50;;;;;;;1.58;0.70;;;4.70;93.70;;;;;;4825274;29;20058;-76
2021/11/22 04:02:17;;;;;;;1.10;0.20;;;4.70;93.80;;;;;;4810598;29;20161;-76
2021/11/22 04:04:44;;;;;;;0.45;0.10;;;4.70;94.00;;;;;;4788871;29;20066;-76
2021/11/22 04:07:11;;;;;;;0.25;0.10;;;4.70;93.80;;;;;;4793434;29;20103;-76
2021/11/22 04:09:38;;;;;;;0.32;0.10;;;4.70;93.80;;;;;;4786096;29;20393;-76
2021/11/22 04:12:05;;;;;;;0.15;0.10;;;4.60;93.80;;;;;;4786737;29;20057;-76
2021/11/22 04:14:32;;;;;;;0.57;0.10;;;4.60;93.80;;;;;;4796085;29;20069;-76
2021/11/22 04:16:59;;;;;;;1.23;0.10;;;4.60;93.80;;;;;;4802321;29;20046;-76
2021/11/22 04:19:27;;;;;;;0.55;0.10;;;4.60;93.90;;;;;;4800427;29;20053;-76
2021/11/22 04:21:54;;;;;;;1.38;0.10;;;4.60;93.90;;;;;;4803600;29;20054;-76
2021/11/22 04:24:21;;;;;;;0.25;0.15;;;4.60;93.90;;;;;;4812447;29;20042;-76
2021/11/22 04:26:49;;;;;;;1.75;0.10;;;4.60;93.80;;;;;;4817078;29;20050;-76
2021/11/22 04:29:16;;;;;;;0.30;0.10;;;4.60;93.80;;;;;;4806940;29;20077;-76
2021/11/22 04:31:43;;;;;;;0.30;0.10;;;4.60;93.80;;;;;;4812019;29;20077;-76
2021/11/22 04:34:10;;;;;;;0.93;0.20;;;4.60;93.80;;;;;;4797297;29;20042;-76
2021/11/22 04:36:37;;;;;;;0.38;0.10;;;4.60;93.70;;;;;;4793298;29;20559;-76
2021/11/22 04:39:04;;;;;;;0.70;0.20;;;4.60;93.80;;;;;;4799136;29;20495;-76
2021/11/22 04:41:31;;;;;;;0.40;0.10;;;4.60;93.80;;;;;;4797282;29;20126;-76
2021/11/22 04:43:58;;;;;;;0.35;0.20;;;4.60;93.80;;;;;;4791158;29;20050;-76
2021/11/22 04:46:25;;;;;;;3.00;0.95;;;4.60;93.80;;;;;;4793745;29;20057;-76
2021/11/22 04:48:52;;;;;;;1.33;0.28;;;4.60;93.80;;;;;;4799210;29;20057;-76
2021/11/22 04:51:19;;;;;;;0.45;0.13;;;4.60;93.70;;;;;;4807541;29;20056;-76
2021/11/22 04:53:46;;;;;;;0.60;0.10;;;4.60;93.70;;;;;;4816997;29;20054;-76
2021/11/22 04:56:13;;;;;;;1.08;0.17;;;4.60;93.70;;;;;;4771297;29;20788;-76
2021/11/22 04:58:40;;;;;;;0.28;0.20;;;4.60;93.70;;;;;;4802825;29;20050;-76
2021/11/22 05:01:07;;;;;;;2.88;0.30;;;4.60;93.80;;;;;;4800420;29;20570;-76
2021/11/22 05:03:34;;;;;;;0.50;0.13;;;4.60;93.80;;;;;;4801523;29;20058;-76
2021/11/22 05:06:01;;;;;;;0.65;0.17;;;4.60;93.80;;;;;;4823063;29;20130;-75
2021/11/22 05:08:28;;;;;;;0.50;0.20;;;4.50;93.70;;;;;;4817146;29;20046;-77
2021/11/22 05:10:55;;;;;;;0.75;0.20;;;4.50;93.70;;;;;;4792785;29;20064;-77
2021/11/22 05:13:22;;;;;;;0.88;0.20;;;4.50;93.80;;;;;;4817726;29;20115;-78
2021/11/22 05:15:50;;;;;;;0.30;0.17;;;4.50;93.80;;;;;;4789604;29;20051;-78
2021/11/22 05:18:17;;;;;;;1.50;0.20;;;4.50;93.80;;;;;;4816823;29;20050;-78
2021/11/22 05:20:46;;;;;;;0.25;0.17;;;4.50;93.80;;;;;;4800556;29;20046;-75
2021/11/22 05:23:14;;;;;;;0.40;0.20;;;4.50;93.80;;;;;;4808556;29;20147;-78
2021/11/22 05:25:41;;;;;;;1.50;0.22;;;4.50;93.80;;;;;;4807901;29;20054;-78
2021/11/22 05:28:09;;;;;;;1.30;0.10;;;4.50;93.80;;;;;;4806168;29;20118;-76
2021/11/22 05:30:37;;;;;;;0.47;0.20;;;4.50;93.70;;;;;;4800323;29;20062;-75
2021/11/22 05:33:05;;;;;;;0.30;0.10;;;4.50;93.70;;;;;;4814506;29;20145;-75
2021/11/22 05:35:33;;;;;;;0.45;0.10;;;4.50;93.80;;;;;;4818123;29;20065;-77
2021/11/22 05:38:00;;;;;;;0.75;0.20;;;4.50;93.80;;;;;;4826466;29;20071;-76
2021/11/22 05:40:27;;;;;;;0.38;0.17;;;4.50;93.80;;;;;;4801267;29;20439;-77
2021/11/22 05:42:55;;;;;;;1.42;0.20;;;4.40;93.80;;;;;;4803390;29;20095;-77
2021/11/22 05:45:22;;;;;;;0.17;0.17;;;4.40;93.80;;;;;;4803429;29;20632;-79
2021/11/22 05:47:49;;;;;;;0.50;0.10;;;4.40;93.80;;;;;;4825656;29;20058;-77
2021/11/22 05:50:18;;;;;;;0.68;0.10;;;4.40;93.80;;;;;;4802164;29;20091;-78
2021/11/22 05:52:51;;;;;;;0.50;0.20;;;4.40;93.80;;;;;;4802068;29;20042;-77
2021/11/22 05:58:06;;;;;;;1.93;0.23;;;4.30;93.70;;;;;;4812842;29;20404;-77
2021/11/22 06:00:34;;;;;;;2.30;0.28;;;4.30;93.80;;;;;;4815678;29;20994;-77
2021/11/22 06:03:02;;;;;;;1.90;0.10;;;4.30;93.80;;;;;;4823435;29;20141;-79
2021/11/22 06:05:29;;;;;;;0.15;0.10;;;4.30;93.80;;;;;;4817208;29;20490;-80
2021/11/22 06:07:56;;;;;;;0.22;0.10;;;4.30;93.80;;;;;;4816256;29;20054;-80
2021/11/22 06:10:23;;;;;;;0.93;0.20;;;4.30;93.80;;;;;;4801937;29;20121;-77
2021/11/22 06:12:51;;;;;;;3.95;0.32;;;4.30;93.80;;;;;;4817153;29;20046;-77
2021/11/22 06:15:19;;;;;;;0.90;0.20;;;4.30;93.80;;;;;;4815984;29;20077;-80
2021/11/22 06:17:46;;;;;;;0.60;0.17;;;4.30;93.80;;;;;;4816406;29;20054;-80
2021/11/22 06:20:13;;;;;;;0.60;0.20;;;4.20;93.80;;;;;;4793036;29;20084;-77
2021/11/22 06:22:40;;;;;;;1.85;0.20;;;4.20;93.90;;;;;;4809124;29;20104;-77
2021/11/22 06:25:07;;;;;;;0.65;0.15;;;4.20;93.80;;;;;;4814568;29;20637;-77
2021/11/22 06:27:34;;;;;;;0.30;0.20;;;4.20;93.90;;;;;;4806337;29;20137;-77
2021/11/22 06:30:04;;;;;;;1.55;0.10;;;4.20;93.80;;;;;;4798724;29;20054;-77
2021/11/22 06:32:31;;;;;;;0.73;0.25;;;4.20;93.90;;;;;;4804755;29;20128;-77
2021/11/22 06:34:58;;;;;;;1.48;0.10;;;4.10;93.90;;;;;;4811072;29;20145;-80
2021/11/22 06:37:27;;;;;;;0.60;0.10;;;4.10;93.90;;;;;;4804110;29;20050;-80
2021/11/22 06:39:55;;;;;;;0.32;0.10;;;4.10;93.90;;;;;;4827029;29;20057;-80
2021/11/22 06:42:22;;;;;;;0.82;0.17;;;4.10;94.20;;;;;;4828833;29;20062;-80
2021/11/22 06:44:50;;;;;;;0.77;0.30;;;4.10;93.90;;;;;;4828795;29;20133;-77
2021/11/22 06:47:17;;;;;;;0.98;0.10;;;4.10;93.90;;;;;;4819837;29;20137;-77
2021/11/22 06:49:45;;;;;;;1.23;0.20;;;4.10;93.90;;;;;;4826915;29;20061;-79
2021/11/22 06:52:14;;;;;;;2.38;0.22;;;4.10;93.90;;;;;;4818291;29;20057;-77
2021/11/22 06:54:41;;;;;;;0.55;0.15;;;4.00;93.90;;;;;;4788463;29;20069;-77
2021/11/22 06:57:08;;;;;;;0.25;0.20;;;4.00;93.90;;;;;;4804234;29;20099;-77
2021/11/22 06:59:35;;;;;;;0.95;0.30;;;4.00;93.90;;;;;;4801162;29;20054;-77
2021/11/22 07:02:03;;;;;;;2.85;0.30;;;4.00;93.90;;;;;;4828115;29;20148;-77
2021/11/22 07:04:30;;;;;;;0.68;0.10;;;4.00;93.90;;;;;;4804993;29;20050;-79
2021/11/22 07:06:57;;;;;;;0.20;0.10;;;4.00;93.90;;;;;;4786860;29;20112;-78
2021/11/22 07:09:25;;;;;;;0.28;0.17;;;4.00;93.90;;;;;;4797650;29;20053;-78
2021/11/22 07:11:53;;;;;;;1.15;0.20;;;4.00;93.90;;;;;;4784871;29;20062;-78
2021/11/22 07:14:20;;;;;;;0.32;0.20;;;4.00;93.90;;;;;;4793679;29;20050;-77
2021/11/22 07:16:49;;;;;;;0.95;0.30;;;4.00;93.90;;;;;;4796404;29;20054;-78
2021/11/22 07:19:16;;;;;;;0.75;0.20;;;4.00;93.90;;;;;;4799909;29;20085;-79
2021/11/22 07:21:43;;;;;;;0.75;0.30;;;4.00;93.90;;;;;;4825170;29;20046;-78
2021/11/22 07:24:10;;;;;;;0.52;0.20;;;4.00;93.90;;;;;;4819204;29;20057;-78
2021/11/22 07:26:38;;;;;;;0.68;0.20;;;4.00;94.20;;;;;;4804389;29;20058;-78
2021/11/22 07:29:05;;;;;;;0.50;0.10;;;4.00;93.90;;;;;;4804424;29;20734;-78
2021/11/22 07:31:32;;;;;;;1.10;0.10;;;4.00;94.00;;;;;;4797081;29;20101;-78
2021/11/22 07:33:59;;;;;;;0.80;0.20;;;4.00;94.00;;;;;;4794170;29;20448;-78
2021/11/22 07:36:26;;;;;;;1.27;0.20;;;4.00;93.90;;;;;;4815899;29;21342;-78
2021/11/22 07:38:53;;;;;;;1.33;0.65;;;4.00;93.90;;;;;;4803262;29;20058;-77
2021/11/22 07:41:20;;;;;;;1.58;0.20;;;4.00;93.90;;;;;;4826642;29;20054;-80
2021/11/22 07:43:48;;;;;;;0.73;0.20;;;4.00;93.90;;;;;;4780895;29;20050;-78
2021/11/22 07:46:15;;;;;;;0.47;0.30;;;4.10;93.90;;;;;;4788308;29;20085;-78
2021/11/22 07:48:41;;;;;;;1.45;0.20;;;4.10;93.90;;;;;;4804110;29;20054;-78
2021/11/22 07:51:09;;;;;;;0.40;0.20;;;4.10;93.90;;;;;;4818862;29;20071;-77
2021/11/22 07:53:38;;;;;;;1.27;0.20;;;4.10;93.80;;;;;;4818102;29;20487;-77
2021/11/22 07:56:07;;;;;;;0.70;0.15;;;4.20;93.80;;;;;;4819725;29;20093;-77
2021/11/22 07:58:34;;;;;;;0.35;0.10;;;4.20;93.80;;;;;;4815300;29;20763;-76
2021/11/22 08:01:01;;;;;;;0.55;0.10;;;4.20;93.80;;;;;;4801952;29;20074;-78
2021/11/22 08:03:29;;;;;;;1.75;0.20;;;4.20;93.80;;;;;;4818346;29;20083;-78
2021/11/22 08:05:57;;;;;;;0.77;0.30;;;4.20;93.80;;;;;;4817585;29;20057;-77
2021/11/22 08:08:28;;;;;;;0.65;0.10;;;4.30;93.80;;;;;;4811240;29;20061;-78
2021/11/22 08:13:41;;;;;;;2.25;0.30;;;4.30;93.80;;;;;;4789450;29;20046;-77
2021/11/22 08:16:08;;;;;;;0.75;0.30;;;4.30;93.70;;;;;;4809536;29;20159;-78
2021/11/22 08:18:38;;;;;;;0.43;0.15;;;4.40;93.70;;;;;;4803535;29;20069;-78
2021/11/22 08:21:05;;;;;;;0.57;0.10;;;4.40;93.60;;;;;;4825949;29;20126;-77
2021/11/22 08:23:32;;;;;;;0.45;0.17;;;4.50;93.60;;;;;;4802708;29;20211;-77
2021/11/22 08:26:00;;;;;;;1.92;0.30;;;4.50;93.60;;;;;;4811032;29;20119;-77
2021/11/22 08:28:27;;;;;;;0.30;0.10;;;4.50;93.50;;;;;;4817479;29;20482;-78
2021/11/22 08:30:54;;;;;;;0.65;0.30;;;4.50;93.50;;;;;;4803755;29;20131;-78
2021/11/22 08:33:21;;;;;;;0.47;0.20;;;4.50;93.50;;;;;;4824947;29;21327;-77
2021/11/22 08:35:51;;;;;;;1.10;0.30;;;4.60;93.50;;;;;;4801004;29;20133;-78
2021/11/22 08:38:18;;;;;;;1.13;0.30;;;4.60;93.50;;;;;;4802825;29;20042;-78
2021/11/22 08:40:52;;;;;;;1.15;0.20;;;4.60;93.50;;;;;;4816519;29;20046;-84
2021/11/22 08:43:24;;;;;;;0.82;0.28;;;4.60;93.50;;;;;;4826118;29;20084;-77
2021/11/22 08:45:51;;;;;;;0.73;0.28;;;4.60;93.50;;;;;;4818465;29;20413;-77
2021/11/22 08:48:25;;;;;;;1.13;0.10;;;4.60;93.50;;;;;;4821540;29;20061;-76
2021/11/22 08:50:52;;;;;;;0.50;0.13;;;4.70;93.50;;;;;;4785640;29;20083;-79
2021/11/22 08:53:23;;;;;;;1.17;0.13;;;4.60;93.50;;;;;;4808698;29;20094;-79
2021/11/22 08:55:54;;;;;;;0.63;0.10;;;4.70;93.50;;;;;;4833973;29;20050;-77
2021/11/22 08:58:22;;;;;;;0.30;0.10;;;4.70;93.50;;;;;;4804162;29;20136;-78
2021/11/22 09:00:50;;;;;;;0.50;0.13;;;4.70;93.40;;;;;;4816142;29;20046;-79
2021/11/22 09:03:18;;;;;;;2.17;0.20;;;4.80;93.40;;;;;;4815443;29;20042;-79
2021/11/22 09:05:45;;;;;;;0.38;0.20;;;4.80;93.40;;;;;;4786967;29;20050;-77
2021/11/22 09:08:13;;;;;;;0.60;0.20;;;4.80;93.40;;;;;;4785084;29;20114;-77
2021/11/22 09:10:40;;;;;;;0.82;0.55;;;4.80;93.30;;;;;;4799884;29;20133;-78
2021/11/22 09:13:07;;;;;;;0.22;0.10;;;4.90;93.30;;;;;;4807154;29;20047;-79
2021/11/22 09:15:34;;;;;;;0.85;0.30;;;4.90;93.30;;;;;;4794158;29;20456;-79
2021/11/22 09:18:01;;;;;;;1.33;0.20;;;5.00;93.30;;;;;;4804863;29;20069;-78
2021/11/22 09:20:29;;;;;;;1.75;0.28;;;5.00;93.20;;;;;;4803080;29;20058;-79
2021/11/22 09:22:57;;;;;;;1.92;0.22;;;5.00;93.20;;;;;;4801404;29;20562;-77
2021/11/22 09:25:25;;;;;;;0.70;0.20;;;5.00;93.20;;;;;;4824161;29;20073;-77
2021/11/22 09:27:52;;;;;;;0.85;0.52;;;5.10;93.20;;;;;;4800842;29;20110;-76
2021/11/22 09:30:20;;;;;;;0.45;0.10;;;5.10;93.20;;;;;;4816181;29;20066;-76
2021/11/22 09:32:47;;;;;;;0.77;0.13;;;5.20;93.10;;;;;;4825354;29;20085;-76
2021/11/22 09:35:14;;;;;;;0.43;0.17;;;5.20;93.20;;;;;;4824560;29;20074;-76
2021/11/22 09:37:41;;;;;;;0.68;0.20;;;5.20;93.10;;;;;;4816876;29;20662;-77
2021/11/22 09:40:10;;;;;;;0.57;0.20;;;5.20;93.10;;;;;;4799658;29;20619;-80
2021/11/22 09:42:38;;;;;;;3.53;0.30;;;5.20;93.10;;;;;;4804524;29;20038;-79
2021/11/22 09:45:07;;;;;;;0.52;0.10;;;5.30;93.10;;;;;;4783055;29;20195;-80
2021/11/22 09:47:34;;;;;;;0.57;0.20;;;5.30;93.10;;;;;;4810761;29;20098;-79
2021/11/22 09:50:03;;;;;;;0.93;0.20;;;5.30;93.10;;;;;;4817403;29;20050;-78
2021/11/22 09:52:30;;;;;;;1.38;0.20;;;5.30;93.10;;;;;;4829936;29;20110;-78
2021/11/22 09:54:57;;;;;;;0.68;0.10;;;5.40;93.10;;;;;;4809562;29;20054;-78
2021/11/22 09:57:24;;;;;;;0.47;0.10;;;5.40;93.10;;;;;;4790058;29;20133;-79
2021/11/22 09:59:52;;;;;;;2.25;0.20;;;5.40;93.10;;;;;;4787358;29;20042;-79
2021/11/22 10:02:43;;;;;;;1.83;0.22;;;5.40;93.10;;;;;;4812524;29;20095;-78
2021/11/22 10:05:27;;;;;;;0.75;0.20;;;5.50;93.00;;;;;;4823786;29;20045;-77
2021/11/22 10:08:13;;;;;;;;;;;5.60;93.00;;;;;;4817112;29;21314;-79
2021/11/22 10:10:43;;;;;;;2.20;0.63;;;5.60;93.00;;;;;;4809385;29;19924;-79
2021/11/22 10:13:32;;;;;;;2.53;0.65;;;5.60;92.90;;;;;;4812268;29;20125;-81
2021/11/22 10:16:21;;;;;;;2.00;0.65;;;5.70;92.90;;;;;;4827282;29;20056;-80
2021/11/22 10:18:54;;;;;;;1.27;0.50;;;5.70;92.80;;;;;;4802798;29;20098;-79
2021/11/22 10:21:34;;;;;;;1.80;0.40;;;5.70;92.80;;;;;;4821445;29;20860;-78
2021/11/22 10:24:06;;;;;;;1.85;0.50;;;5.80;92.80;;;;;;4817152;29;20058;-78
2021/11/22 10:26:42;;;;;;;0.80;0.30;;;5.80;92.80;;;;;;4810651;29;20062;-79
2021/11/22 10:29:11;;;;;;;1.52;0.45;;;5.80;92.70;;;;;;4832766;29;20052;-79
2021/11/22 10:31:39;;;;;;;0.85;0.13;;;5.80;92.70;;;;;;4826931;29;20436;-78
2021/11/22 10:34:06;;;;;;;1.67;0.40;;;5.80;92.70;;;;;;4803062;29;20042;-79
2021/11/22 10:36:37;;;;;;;1.40;0.30;;;5.90;92.80;;;;;;4800196;29;20046;-77
2021/11/22 10:39:05;;;;;;;1.02;0.20;;;5.90;92.70;;;;;;4799982;29;20456;-77
2021/11/22 10:41:39;;;;;;;1.00;0.30;;;5.90;92.70;;;;;;4826363;29;20125;-78
2021/11/22 10:44:09;;;;;;;1.38;0.10;;;6.00;93.00;;;;;;4817388;29;20042;-78
2021/11/22 10:46:49;;;;;;;1.73;0.30;;;6.00;92.70;;;;;;4812895;29;20487;-77
2021/11/22 10:49:31;;;;;;;0.75;0.10;;;6.10;92.70;;;;;;4821405;29;20074;-77
2021/11/22 10:52:37;;;;;;;0.50;0.20;;;6.10;92.90;;;;;;4822116;29;20621;-78
2021/11/22 10:55:08;;;;;;;0.20;0.10;;;6.20;92.50;;;;;;4806663;29;20054;-80
2021/11/22 10:57:51;;;;;;;0.52;0.10;;;6.20;92.70;;;;;;4830101;29;20108;-80
2021/11/22 11:00:20;;;;;;;0.50;0.10;;;6.30;92.40;;;;;;4827862;29;20041;-78
2021/11/22 11:02:49;;;;;;;0.98;0.20;;;6.30;92.30;;;;;;4816794;29;20078;-78
2021/11/22 11:05:29;;;;;;;0.57;0.10;;;6.30;92.30;;;;;;4794167;29;20073;-77
2021/11/22 11:08:01;;;;;;;2.97;0.22;;;6.40;92.20;;;;;;4820497;29;20383;-82
2021/11/22 11:10:28;;;;;;;0.35;0.00;;;6.40;92.20;;;;;;4805783;29;20599;-80
2021/11/22 11:12:56;;;;;;;0.40;0.20;;;6.40;92.20;;;;;;4772321;29;20054;-80
2021/11/22 11:15:25;;;;;;;0.20;0.10;;;6.40;92.20;;;;;;4831233;29;21028;-80
2021/11/22 11:17:52;;;;;;;0.40;0.10;;;6.40;92.20;;;;;;4797344;29;20050;-80
2021/11/22 11:20:22;;;;;;;0.75;0.10;;;6.40;92.20;;;;;;4789677;29;20513;-81
2021/11/22 11:22:52;;;;;;;0.20;0.10;;;6.50;92.10;;;;;;4816296;29;20098;-82
2021/11/22 11:25:23;;;;;;;0.65;0.28;;;6.50;92.00;;;;;;4807184;29;20764;-81
2021/11/22 11:27:51;;;;;;;0.80;0.10;;;6.50;92.00;;;;;;4827150;29;20058;-81
2021/11/22 11:30:23;;;;;;;0.32;0.10;;;6.50;92.00;;;;;;4789228;29;20410;-82
2021/11/22 11:32:53;;;;;;;0.30;0.08;;;6.60;92.00;;;;;;4819510;29;20050;-79
2021/11/22 11:35:26;;;;;;;1.95;0.32;;;6.60;92.00;;;;;;4798121;29;20046;-80
2021/11/22 11:38:34;;;;;;;0.55;0.10;;;6.60;91.90;;;;;;4817083;29;20150;-81
2021/11/22 11:41:34;;;;;;;0.52;0.10;;;6.60;91.80;;;;;;4768700;30;20090;-81
2021/11/22 11:44:11;;;;;;;0.50;0.13;;;6.70;91.80;;;;;;4770117;30;20062;-81
2021/11/22 11:47:21;;;;;;;0.20;0.10;;;6.60;91.70;;;;;;4816187;29;20050;-81
2021/11/22 11:49:50;;;;;;;1.95;0.10;;;6.70;91.70;;;;;;4817141;29;20074;-80
2021/11/22 11:52:29;;;;;;;0.43;0.10;;;6.70;91.70;;;;;;4832167;29;20030;-80
2021/11/22 11:54:57;;;;;;;1.13;0.10;;;6.70;91.60;;;;;;4814659;29;20050;-81
2021/11/22 11:57:29;;;;;;;0.20;0.10;;;6.80;91.50;;;;;;4822842;29;20471;-81
2021/11/22 11:59:57;;;;;;;0.28;0.20;;;6.80;91.40;;;;;;4790550;29;20093;-78
2021/11/22 12:02:33;;;;;;;0.30;0.10;;;6.80;91.40;;;;;;4823808;29;20077;-81
2021/11/22 12:05:09;;;;;;;0.40;0.17;;;6.80;91.40;;;;;;4818287;29;20080;-79
2021/11/22 12:07:37;;;;;;;0.52;0.17;;;6.90;91.30;;;;;;4796512;29;20122;-80
2021/11/22 12:10:26;;;;;;;0.50;0.10;;;6.90;91.30;;;;;;4809213;29;21211;-80
2021/11/22 12:13:04;;;;;;;0.50;0.13;;;6.90;91.30;;;;;;4816676;29;20046;-80
2021/11/22 12:15:41;;;;;;;0.43;0.10;;;6.90;91.30;;;;;;4815066;29;20058;-81
2021/11/22 12:18:38;;;;;;;0.38;0.20;;;6.90;91.30;;;;;;4814569;29;20415;-79
2021/11/22 12:21:29;;;;;;;0.47;0.10;;;6.90;91.20;;;;;;4809819;29;20754;-79
2021/11/22 12:23:57;;;;;;;0.55;0.10;;;7.00;91.50;;;;;;4801478;29;20047;-79
2021/11/22 12:26:36;;;;;;;1.58;0.10;;;7.00;91.50;;;;;;4796250;29;20098;-79
2021/11/22 12:29:09;;;;;;;0.20;0.10;;;7.00;91.10;;;;;;4825788;29;20110;-79
2021/11/22 12:31:46;;;;;;;0.32;0.20;;;7.00;91.10;;;;;;4808968;29;20946;-79
2021/11/22 12:34:35;;;;;;;0.40;0.20;;;7.00;91.00;;;;;;4805227;29;20053;-79
2021/11/22 12:37:21;;;;;;;1.20;0.20;;;7.00;91.00;;;;;;4823869;29;20136;-78
2021/11/22 12:39:49;;;;;;;0.40;0.17;;;7.10;91.00;;;;;;4823813;29;20054;-79
2021/11/22 12:42:20;;;;;;;0.88;0.20;;;7.00;91.00;;;;;;4802076;29;20039;-78
2021/11/22 12:45:07;;;;;;;0.65;0.20;;;7.10;91.00;;;;;;4817297;29;20522;-79
2021/11/22 12:47:34;;;;;;;1.27;0.10;;;7.10;90.80;;;;;;4817869;29;20094;-79
2021/11/22 12:50:13;;;;;;;0.68;0.10;;;7.10;90.80;;;;;;4788468;29;20070;-79
2021/11/22 12:52:41;;;;;;;1.55;0.30;;;7.10;90.80;;;;;;4826063;29;20077;-80
2021/11/22 12:55:19;;;;;;;0.73;0.20;;;7.10;90.80;;;;;;4823048;29;20384;-79
2021/11/22 12:58:06;;;;;;;1.00;0.20;;;7.20;90.70;;;;;;4818122;29;21395;-79
2021/11/22 13:00:36;;;;;;;1.00;0.20;;;7.20;90.70;;;;;;4815419;29;20054;-80
2021/11/22 13:03:15;;;;;;;0.68;0.17;;;7.20;90.60;;;;;;4809520;29;20077;-82
2021/11/22 13:06:16;;;;;;;2.03;0.22;;;7.20;90.60;;;;;;4797515;29;20126;-82
2021/11/22 13:08:45;;;;;;;0.20;0.10;;;7.20;90.60;;;;;;4799852;29;20057;-82
2021/11/22 13:11:42;;;;;;;0.38;0.17;;;7.20;90.60;;;;;;4822516;29;20103;-81
2021/11/22 13:14:13;;;;;;;0.20;0.10;;;7.20;90.60;;;;;;4803740;29;20061;-81
2021/11/22 13:16:41;;;;;;;1.00;0.10;;;7.30;90.60;;;;;;4803105;29;20156;-82
2021/11/22 13:19:11;;;;;;;0.45;0.13;;;7.30;90.50;;;;;;4786015;29;20060;-81